Broaddus, Texas
Current Conditions -  °F | °C
As of 12:53 AM on Monday 22 Dec 2014 (Local Time) from KLFK Reporting Station
Overcast Overcast  
Wind Chill: 12°   Ceiling: 600
Heat Index: 12°   Visibility: 7mi
Dew Point:   Wind: 8mph
Humidity: 83%   Direction: 160°SSE
Pressure: 29.85"   Gusts: NA
Location:  31.31°N, 94.27°W
Report Text: KLFK 220653Z AUTO 16007KT 7SM OVC006 12/09 A2985 RMK AO2 SLP108 T01170089
Loading
Personal Weather Stations






























Interactive Weather Map New forecast layout! Learn more

10-Day Weather Forecast

Advertisements
Track Severe Weather on mobile